Urb Llavat, Puerto Rico
Current Conditions -  °F | °C
As of 9:50 AM on Wednesday 26 Nov 2014 (Local Time) from TJBQ Reporting Station
Overcast Overcast  
Wind Chill: 77°   Ceiling: 7000
Heat Index: 79°   Visibility: 10mi
Dew Point: 70°   Wind: 7mph
Humidity: 78%   Direction: 110°ESE
Pressure: 30.08"   Gusts: NA
Location:  18.203°N, 67.14°W
Report Text: TJBQ 261350Z 11006KT 10SM SCT060 OVC070 25/21 A3008 RMK RWY08 ATIS I
Loading
Personal Weather Stations






























Interactive Weather Map New forecast layout! Learn more

10-Day Weather Forecast

Advertisements
Track Severe Weather on mobile